sensor_id;sensor_type;location;lat;lon;timestamp;P1;durP1;ratioP1;P2;durP2;ratioP2
60002;SDS011;46322;52.018;8.702;2024-01-16T00:03:45;5.27;;;4.97;;
60002;SDS011;46322;52.018;8.702;2024-01-16T00:08:45;5.43;;;5.07;;
60002;SDS011;46322;52.018;8.702;2024-01-16T00:13:45;4.85;;;4.55;;
60002;SDS011;46322;52.018;8.702;2024-01-16T00:18:45;4.00;;;3.70;;
60002;SDS011;46322;52.018;8.702;2024-01-16T00:23:46;4.93;;;4.63;;
60002;SDS011;46322;52.018;8.702;2024-01-16T00:28:46;5.90;;;5.50;;
60002;SDS011;46322;52.018;8.702;2024-01-16T00:33:46;4.97;;;4.67;;
60002;SDS011;46322;52.018;8.702;2024-01-16T00:38:46;5.20;;;4.90;;
60002;SDS011;46322;52.018;8.702;2024-01-16T00:43:46;5.07;;;4.78;;
60002;SDS011;46322;52.018;8.702;2024-01-16T00:48:46;4.90;;;4.60;;
60002;SDS011;46322;52.018;8.702;2024-01-16T00:53:46;5.25;;;4.95;;
60002;SDS011;46322;52.018;8.702;2024-01-16T00:58:47;4.73;;;4.43;;
60002;SDS011;46322;52.018;8.702;2024-01-16T01:03:47;5.50;;;5.10;;
60002;SDS011;46322;52.018;8.702;2024-01-16T01:08:47;5.72;;;5.32;;
60002;SDS011;46322;52.018;8.702;2024-01-16T01:13:47;4.95;;;4.65;;
60002;SDS011;46322;52.018;8.702;2024-01-16T01:18:47;5.43;;;5.05;;
60002;SDS011;46322;52.018;8.702;2024-01-16T01:23:47;5.57;;;5.17;;
60002;SDS011;46322;52.018;8.702;2024-01-16T01:28:47;4.90;;;4.60;;
60002;SDS011;46322;52.018;8.702;2024-01-16T01:33:48;4.78;;;4.47;;
60002;SDS011;46322;52.018;8.702;2024-01-16T01:38:48;6.38;;;5.88;;
60002;SDS011;46322;52.018;8.702;2024-01-16T01:43:48;11.13;;;8.73;;
60002;SDS011;46322;52.018;8.702;2024-01-16T01:48:48;15.30;;;11.27;;
60002;SDS011;46322;52.018;8.702;2024-01-16T01:53:49;6.73;;;6.13;;
60002;SDS011;46322;52.018;8.702;2024-01-16T01:58:52;15.13;;;11.02;;
60002;SDS011;46322;52.018;8.702;2024-01-16T02:03:53;7.22;;;6.53;;
60002;SDS011;46322;52.018;8.702;2024-01-16T02:08:54;7.03;;;6.43;;
60002;SDS011;46322;52.018;8.702;2024-01-16T02:13:54;7.18;;;6.57;;
60002;SDS011;46322;52.018;8.702;2024-01-16T02:18:55;5.82;;;5.38;;
60002;SDS011;46322;52.018;8.702;2024-01-16T02:23:55;6.50;;;6.00;;
60002;SDS011;46322;52.018;8.702;2024-01-16T02:28:55;5.67;;;5.17;;
60002;SDS011;46322;52.018;8.702;2024-01-16T02:33:55;6.07;;;5.60;;
60002;SDS011;46322;52.018;8.702;2024-01-16T02:38:55;49.55;;;27.25;;
60002;SDS011;46322;52.018;8.702;2024-01-16T02:43:55;59.13;;;27.83;;
60002;SDS011;46322;52.018;8.702;2024-01-16T02:48:55;57.58;;;26.65;;
60002;SDS011;46322;52.018;8.702;2024-01-16T02:53:55;56.43;;;25.53;;
60002;SDS011;46322;52.018;8.702;2024-01-16T02:58:56;55.25;;;25.13;;
60002;SDS011;46322;52.018;8.702;2024-01-16T03:03:56;55.35;;;24.88;;
60002;SDS011;46322;52.018;8.702;2024-01-16T03:08:56;54.55;;;29.45;;
60002;SDS011;46322;52.018;8.702;2024-01-16T03:13:56;54.70;;;27.73;;
60002;SDS011;46322;52.018;8.702;2024-01-16T03:18:56;69.27;;;29.00;;
60002;SDS011;46322;52.018;8.702;2024-01-16T03:23:56;61.85;;;28.20;;
60002;SDS011;46322;52.018;8.702;2024-01-16T03:28:56;59.90;;;27.60;;
60002;SDS011;46322;52.018;8.702;2024-01-16T03:33:56;60.38;;;27.73;;
60002;SDS011;46322;52.018;8.702;2024-01-16T03:38:57;59.97;;;27.77;;
60002;SDS011;46322;52.018;8.702;2024-01-16T03:43:57;57.73;;;26.20;;
60002;SDS011;46322;52.018;8.702;2024-01-16T03:48:57;56.30;;;25.25;;
60002;SDS011;46322;52.018;8.702;2024-01-16T03:53:57;56.42;;;25.38;;
60002;SDS011;46322;52.018;8.702;2024-01-16T03:58:57;54.60;;;24.30;;
60002;SDS011;46322;52.018;8.702;2024-01-16T04:03:57;56.03;;;25.27;;
60002;SDS011;46322;52.018;8.702;2024-01-16T04:08:57;55.90;;;24.87;;
60002;SDS011;46322;52.018;8.702;2024-01-16T04:13:58;54.53;;;23.95;;
60002;SDS011;46322;52.018;8.702;2024-01-16T04:18:58;55.10;;;24.48;;
60002;SDS011;46322;52.018;8.702;2024-01-16T04:23:58;56.60;;;26.13;;
60002;SDS011;46322;52.018;8.702;2024-01-16T04:28:58;57.15;;;26.00;;
60002;SDS011;46322;52.018;8.702;2024-01-16T04:33:58;57.13;;;26.10;;
60002;SDS011;46322;52.018;8.702;2024-01-16T04:38:58;57.17;;;26.07;;
60002;SDS011;46322;52.018;8.702;2024-01-16T04:43:58;56.92;;;26.20;;
60002;SDS011;46322;52.018;8.702;2024-01-16T04:48:58;58.08;;;26.77;;
60002;SDS011;46322;52.018;8.702;2024-01-16T04:53:59;55.22;;;24.58;;
60002;SDS011;46322;52.018;8.702;2024-01-16T04:58:59;55.70;;;24.75;;
60002;SDS011;46322;52.018;8.702;2024-01-16T05:03:59;55.93;;;26.67;;
60002;SDS011;46322;52.018;8.702;2024-01-16T05:08:59;54.30;;;28.77;;
60002;SDS011;46322;52.018;8.702;2024-01-16T05:13:59;47.30;;;25.27;;
60002;SDS011;46322;52.018;8.702;2024-01-16T05:18:59;51.45;;;26.58;;
60002;SDS011;46322;52.018;8.702;2024-01-16T05:23:59;54.20;;;26.00;;
60002;SDS011;46322;52.018;8.702;2024-01-16T05:28:59;55.33;;;24.87;;
60002;SDS011;46322;52.018;8.702;2024-01-16T05:34:00;55.90;;;25.67;;
60002;SDS011;46322;52.018;8.702;2024-01-16T05:39:00;49.45;;;26.42;;
60002;SDS011;46322;52.018;8.702;2024-01-16T05:44:00;52.33;;;26.27;;
60002;SDS011;46322;52.018;8.702;2024-01-16T05:49:00;33.08;;;17.77;;
60002;SDS011;46322;52.018;8.702;2024-01-16T05:54:00;54.37;;;25.30;;
60002;SDS011;46322;52.018;8.702;2024-01-16T05:59:00;55.30;;;24.52;;
60002;SDS011;46322;52.018;8.702;2024-01-16T06:04:00;54.97;;;25.52;;
60002;SDS011;46322;52.018;8.702;2024-01-16T06:09:01;55.10;;;25.50;;
60002;SDS011;46322;52.018;8.702;2024-01-16T06:14:01;54.58;;;27.35;;
60002;SDS011;46322;52.018;8.702;2024-01-16T06:19:01;52.53;;;24.10;;
60002;SDS011;46322;52.018;8.702;2024-01-16T06:24:01;55.00;;;23.77;;
60002;SDS011;46322;52.018;8.702;2024-01-16T06:29:01;55.30;;;24.57;;
60002;SDS011;46322;52.018;8.702;2024-01-16T06:34:02;55.83;;;24.77;;
60002;SDS011;46322;52.018;8.702;2024-01-16T06:39:02;56.40;;;25.42;;
60002;SDS011;46322;52.018;8.702;2024-01-16T06:44:02;55.67;;;24.63;;
60002;SDS011;46322;52.018;8.702;2024-01-16T06:49:02;55.58;;;26.65;;
60002;SDS011;46322;52.018;8.702;2024-01-16T06:54:02;53.30;;;28.20;;
60002;SDS011;46322;52.018;8.702;2024-01-16T06:59:02;52.83;;;28.25;;
60002;SDS011;46322;52.018;8.702;2024-01-16T07:04:02;29.88;;;18.40;;
60002;SDS011;46322;52.018;8.702;2024-01-16T07:09:03;21.20;;;14.13;;
60002;SDS011;46322;52.018;8.702;2024-01-16T07:14:03;16.02;;;11.45;;
60002;SDS011;46322;52.018;8.702;2024-01-16T07:19:03;7.67;;;6.57;;
60002;SDS011;46322;52.018;8.702;2024-01-16T07:24:04;9.17;;;7.70;;
60002;SDS011;46322;52.018;8.702;2024-01-16T07:29:04;4.97;;;4.67;;
60002;SDS011;46322;52.018;8.702;2024-01-16T07:34:04;5.93;;;5.43;;
60002;SDS011;46322;52.018;8.702;2024-01-16T07:39:04;6.00;;;5.53;;
60002;SDS011;46322;52.018;8.702;2024-01-16T07:44:04;5.03;;;4.72;;
60002;SDS011;46322;52.018;8.702;2024-01-16T07:49:04;6.60;;;6.20;;
60002;SDS011;46322;52.018;8.702;2024-01-16T07:54:06;5.05;;;4.75;;
60002;SDS011;46322;52.018;8.702;2024-01-16T07:59:06;5.40;;;5.07;;
60002;SDS011;46322;52.018;8.702;2024-01-16T08:04:06;50.88;;;27.55;;
60002;SDS011;46322;52.018;8.702;2024-01-16T08:09:06;48.33;;;27.27;;
60002;SDS011;46322;52.018;8.702;2024-01-16T08:14:06;45.40;;;25.83;;
60002;SDS011;46322;52.018;8.702;2024-01-16T08:19:06;19.45;;;14.63;;
60002;SDS011;46322;52.018;8.702;2024-01-16T08:24:06;20.73;;;15.47;;
60002;SDS011;46322;52.018;8.702;2024-01-16T08:29:07;14.07;;;10.45;;
60002;SDS011;46322;52.018;8.702;2024-01-16T08:34:07;18.77;;;12.52;;
60002;SDS011;46322;52.018;8.702;2024-01-16T08:39:07;54.10;;;29.33;;
60002;SDS011;46322;52.018;8.702;2024-01-16T08:44:07;54.10;;;26.85;;
60002;SDS011;46322;52.018;8.702;2024-01-16T08:49:07;53.63;;;29.10;;
60002;SDS011;46322;52.018;8.702;2024-01-16T08:54:07;51.83;;;31.35;;
60002;SDS011;46322;52.018;8.702;2024-01-16T08:59:07;52.95;;;29.80;;
60002;SDS011;46322;52.018;8.702;2024-01-16T09:04:08;54.90;;;25.33;;
60002;SDS011;46322;52.018;8.702;2024-01-16T09:09:08;49.50;;;27.92;;
60002;SDS011;46322;52.018;8.702;2024-01-16T09:14:08;53.53;;;27.33;;
60002;SDS011;46322;52.018;8.702;2024-01-16T09:19:08;51.63;;;30.43;;
60002;SDS011;46322;52.018;8.702;2024-01-16T09:24:08;42.55;;;26.90;;
60002;SDS011;46322;52.018;8.702;2024-01-16T09:29:09;16.13;;;14.43;;
60002;SDS011;46322;52.018;8.702;2024-01-16T09:34:09;46.53;;;26.20;;
60002;SDS011;46322;52.018;8.702;2024-01-16T09:39:09;53.93;;;27.97;;
60002;SDS011;46322;52.018;8.702;2024-01-16T09:44:10;52.88;;;27.65;;
60002;SDS011;46322;52.018;8.702;2024-01-16T09:49:10;51.25;;;28.88;;
60002;SDS011;46322;52.018;8.702;2024-01-16T09:54:10;9.77;;;8.43;;
60002;SDS011;46322;52.018;8.702;2024-01-16T09:59:11;9.38;;;8.57;;
60002;SDS011;46322;52.018;8.702;2024-01-16T10:04:12;8.43;;;7.93;;
60002;SDS011;46322;52.018;8.702;2024-01-16T10:09:12;10.32;;;9.73;;
60002;SDS011;46322;52.018;8.702;2024-01-16T10:14:12;24.73;;;17.77;;
60002;SDS011;46322;52.018;8.702;2024-01-16T10:19:13;24.80;;;19.40;;
60002;SDS011;46322;52.018;8.702;2024-01-16T10:24:13;7.87;;;7.30;;
60002;SDS011;46322;52.018;8.702;2024-01-16T10:29:14;15.15;;;12.32;;
60002;SDS011;46322;52.018;8.702;2024-01-16T10:34:20;7.70;;;7.20;;
60002;SDS011;46322;52.018;8.702;2024-01-16T10:39:21;14.73;;;13.82;;
60002;SDS011;46322;52.018;8.702;2024-01-16T10:44:21;11.30;;;10.67;;
60002;SDS011;46322;52.018;8.702;2024-01-16T10:49:21;8.95;;;8.45;;
60002;SDS011;46322;52.018;8.702;2024-01-16T10:54:21;8.20;;;7.72;;
60002;SDS011;46322;52.018;8.702;2024-01-16T10:59:25;7.28;;;6.88;;
60002;SDS011;46322;52.018;8.702;2024-01-16T11:04:25;9.17;;;8.57;;
60002;SDS011;46322;52.018;8.702;2024-01-16T11:09:27;13.32;;;12.55;;
60002;SDS011;46322;52.018;8.702;2024-01-16T11:14:27;7.67;;;7.20;;
60002;SDS011;46322;52.018;8.702;2024-01-16T11:19:28;25.90;;;24.60;;
60002;SDS011;46322;52.018;8.702;2024-01-16T11:24:28;27.75;;;26.15;;
